Time;durP1;ratioP1;P1;durP2;ratioP2;P2;SDS_P1;SDS_P2;PMS_P1;PMS_P2;Temp;Humidity;BMP_temperature;BMP_pressure;BME280_temperature;BME280_humidity;BME280_pressure;Samples;Min_cycle;Max_cycle;Signal;HPM_P1;HPM_P2
2022/03/23 00:00:43;;;;;;;17.60;10.18;;;3.10;85.80;;;;;;4978813;28;20030;-88
2022/03/23 00:03:10;;;;;;;18.23;9.55;;;3.00;87.10;;;;;;4996012;28;20080;-88
2022/03/23 00:05:39;;;;;;;18.00;9.75;;;3.00;87.00;;;;;;4962480;28;20030;-88
2022/03/23 00:08:05;;;;;;;17.15;9.02;;;2.90;87.00;;;;;;4978415;28;20041;-87
2022/03/23 00:10:31;;;;;;;17.88;9.18;;;2.80;89.00;;;;;;4962081;28;20026;-88
2022/03/23 00:12:58;;;;;;;22.95;10.00;;;2.80;88.80;;;;;;4994769;28;20041;-88
2022/03/23 00:15:24;;;;;;;18.05;9.55;;;2.80;88.50;;;;;;4962410;28;20478;-88
2022/03/23 00:17:50;;;;;;;18.65;10.25;;;2.80;89.90;;;;;;4994160;28;20031;-87
2022/03/23 00:20:16;;;;;;;18.23;9.50;;;2.80;90.10;;;;;;4962461;28;20610;-87
2022/03/23 00:22:42;;;;;;;13.75;8.77;;;2.80;90.20;;;;;;4962306;28;20045;-88
2022/03/23 00:25:08;;;;;;;21.35;9.95;;;2.80;89.90;;;;;;4962105;28;20074;-88
2022/03/23 00:27:35;;;;;;;20.92;9.30;;;2.80;89.80;;;;;;4993999;28;20044;-88
2022/03/23 00:30:01;;;;;;;14.10;8.57;;;2.90;89.20;;;;;;4994552;28;20030;-88
2022/03/23 00:32:27;;;;;;;19.73;8.77;;;2.90;89.60;;;;;;4962541;28;20081;-88
2022/03/23 00:34:53;;;;;;;17.23;9.57;;;2.80;90.20;;;;;;4993908;28;20038;-88
2022/03/23 00:37:19;;;;;;;17.58;9.23;;;2.80;90.50;;;;;;4993777;28;20121;-88
2022/03/23 00:39:46;;;;;;;20.35;9.90;;;2.80;90.50;;;;;;4961892;28;20057;-87
2022/03/23 00:42:13;;;;;;;18.42;10.30;;;2.80;90.90;;;;;;4977688;28;20062;-88
2022/03/23 00:44:38;;;;;;;16.55;9.73;;;2.80;91.80;;;;;;4961619;28;20077;-88
2022/03/23 00:47:05;;;;;;;22.10;10.07;;;2.90;91.30;;;;;;4976937;28;20753;-88
2022/03/23 00:49:30;;;;;;;16.55;9.88;;;2.80;91.70;;;;;;4961208;28;20501;-88
2022/03/23 00:51:56;;;;;;;18.80;10.05;;;2.80;91.80;;;;;;4993835;28;20038;-88
2022/03/23 00:54:23;;;;;;;20.20;9.95;;;2.80;92.00;;;;;;4993349;28;20464;-87
2022/03/23 00:56:50;;;;;;;21.15;10.57;;;2.70;92.80;;;;;;4961072;28;20038;-88
2022/03/23 00:59:17;;;;;;;18.60;9.40;;;2.70;92.40;;;;;;4993745;28;20027;-88
2022/03/23 01:01:45;;;;;;;17.52;9.52;;;2.60;92.60;;;;;;4961156;28;20096;-87
2022/03/23 01:04:12;;;;;;;18.17;9.10;;;2.50;93.40;;;;;;4961476;28;20489;-88
2022/03/23 01:06:37;;;;;;;15.90;9.60;;;2.40;93.70;;;;;;4960651;28;20034;-87
2022/03/23 01:09:07;;;;;;;21.20;9.95;;;2.30;94.40;;;;;;4993118;28;20485;-88
2022/03/23 01:11:33;;;;;;;16.20;9.02;;;2.30;95.10;;;;;;4977106;28;20031;-88
2022/03/23 01:13:59;;;;;;;20.10;10.90;;;2.20;96.10;;;;;;4961403;28;20043;-87
2022/03/23 01:16:25;;;;;;;18.83;10.10;;;2.10;96.90;;;;;;4961582;28;20038;-88
2022/03/23 01:18:50;;;;;;;16.33;10.38;;;2.10;97.50;;;;;;4961274;28;20125;-88
2022/03/23 01:21:16;;;;;;;18.80;10.20;;;2.00;97.60;;;;;;4961312;28;20031;-88
2022/03/23 01:23:43;;;;;;;19.83;9.98;;;2.00;97.20;;;;;;4960807;28;20030;-88
2022/03/23 01:26:10;;;;;;;13.50;8.27;;;2.00;97.40;;;;;;4961225;28;20053;-88
2022/03/23 01:28:36;;;;;;;17.48;9.52;;;2.00;97.50;;;;;;4960816;28;20038;-88
2022/03/23 01:31:02;;;;;;;21.25;10.35;;;1.90;97.00;;;;;;4977064;28;20030;-87
2022/03/23 01:33:29;;;;;;;17.50;10.20;;;1.90;97.10;;;;;;4992349;28;20034;-88
2022/03/23 01:35:55;;;;;;;19.42;10.15;;;1.90;97.60;;;;;;4960933;28;20413;-88
2022/03/23 01:38:20;;;;;;;17.67;10.60;;;1.90;97.90;;;;;;4993037;28;20066;-88
2022/03/23 01:40:47;;;;;;;14.77;9.23;;;1.90;98.30;;;;;;4960743;28;20034;-88
2022/03/23 01:43:16;;;;;;;14.88;9.45;;;1.90;98.20;;;;;;4994232;28;20030;-88
2022/03/23 01:45:42;;;;;;;17.23;10.07;;;1.90;99.20;;;;;;4960812;28;20609;-88
2022/03/23 01:48:08;;;;;;;18.90;10.68;;;1.80;99.80;;;;;;4960396;28;20088;-87
2022/03/23 01:50:34;;;;;;;19.35;9.95;;;1.80;99.50;;;;;;4960191;28;20032;-88
2022/03/23 01:53:01;;;;;;;16.67;9.45;;;1.80;99.60;;;;;;4960715;28;20038;-88
2022/03/23 01:55:29;;;;;;;20.10;9.38;;;1.80;99.40;;;;;;4992689;28;20030;-88
2022/03/23 01:57:55;;;;;;;21.25;10.15;;;1.80;99.30;;;;;;4959951;28;20026;-88
2022/03/23 02:00:21;;;;;;;16.70;9.35;;;1.80;99.20;;;;;;4976668;28;20454;-88
2022/03/23 02:02:48;;;;;;;17.30;10.27;;;1.80;99.00;;;;;;4960737;28;20151;-88
2022/03/23 02:05:19;;;;;;;15.05;9.77;;;1.80;99.50;;;;;;4960804;28;20037;-88
2022/03/23 02:07:54;;;;;;;18.48;10.48;;;1.80;99.90;;;;;;4961760;28;20034;-88
2022/03/23 02:10:20;;;;;;;18.52;10.70;;;1.70;99.90;;;;;;4960649;28;20601;-88
2022/03/23 02:13:09;;;;;;;19.73;10.55;;;1.70;99.90;;;;;;4991333;28;20034;-88
2022/03/23 02:15:36;;;;;;;19.63;9.70;;;1.70;99.90;;;;;;4960512;28;20096;-87
2022/03/23 02:18:02;;;;;;;17.50;10.38;;;1.80;99.70;;;;;;4992070;28;20026;-88
2022/03/23 02:20:28;;;;;;;16.80;10.32;;;1.90;99.90;;;;;;4960450;28;20146;-88
2022/03/23 02:22:54;;;;;;;26.35;11.98;;;1.90;99.90;;;;;;4976411;28;20679;-88
2022/03/23 02:25:28;;;;;;;25.63;12.10;;;1.90;99.90;;;;;;4992663;28;20026;-88
2022/03/23 02:27:55;;;;;;;36.40;14.80;;;1.80;99.90;;;;;;4975976;28;20030;-88
2022/03/23 02:30:21;;;;;;;52.13;17.05;;;1.70;99.90;;;;;;4992059;28;20034;-88
2022/03/23 02:32:48;;;;;;;82.97;27.02;;;1.70;99.90;;;;;;4991997;28;20034;-88
2022/03/23 02:35:15;;;;;;;114.38;33.13;;;1.60;99.90;;;;;;4992295;28;20058;-88
2022/03/23 02:37:47;;;;;;;107.80;30.75;;;1.60;99.90;;;;;;4960238;28;20037;-87
2022/03/23 02:40:12;;;;;;;59.95;21.00;;;1.60;99.90;;;;;;4960266;28;20129;-88
2022/03/23 02:42:39;;;;;;;42.40;17.60;;;1.60;99.90;;;;;;4992197;28;20121;-88
2022/03/23 02:45:06;;;;;;;29.10;12.30;;;1.60;99.90;;;;;;4960301;28;20581;-87
2022/03/23 02:47:32;;;;;;;19.75;10.55;;;1.50;99.90;;;;;;4993517;28;20034;-88
2022/03/23 02:49:58;;;;;;;20.17;10.48;;;1.50;99.90;;;;;;4960456;28;20030;-87
2022/03/23 02:52:24;;;;;;;17.80;9.10;;;1.50;99.90;;;;;;4961962;28;20034;-87
2022/03/23 03:03:32;;;;;;;18.92;10.25;;;1.30;99.90;;;;;;4980139;28;20127;-88
2022/03/23 03:05:58;;;;;;;24.02;11.38;;;1.30;99.90;;;;;;4963279;28;20030;-88
2022/03/23 03:11:07;;;;;;;18.70;10.38;;;1.30;99.90;;;;;;4979650;28;20045;-88
2022/03/23 03:13:34;;;;;;;20.17;10.80;;;1.30;99.90;;;;;;4996087;28;20034;-88
2022/03/23 03:16:05;;;;;;;18.27;10.13;;;1.20;99.90;;;;;;4979690;28;20034;-88
2022/03/23 03:18:33;;;;;;;17.40;10.20;;;1.20;99.90;;;;;;4963313;28;20097;-88
2022/03/23 03:21:00;;;;;;;21.20;10.13;;;1.20;99.90;;;;;;4995586;28;20034;-88
2022/03/23 03:23:27;;;;;;;19.25;11.18;;;1.20;99.90;;;;;;4979315;28;20041;-88
2022/03/23 03:25:53;;;;;;;16.17;10.02;;;1.20;99.90;;;;;;4962960;28;20031;-88
2022/03/23 03:28:19;;;;;;;20.58;10.50;;;1.20;99.90;;;;;;4963042;28;20481;-88
2022/03/23 03:30:45;;;;;;;22.75;11.13;;;1.20;99.90;;;;;;4995378;28;20124;-88
2022/03/23 03:33:10;;;;;;;18.55;11.07;;;1.20;99.90;;;;;;4978737;28;20052;-88
2022/03/23 03:35:36;;;;;;;17.65;10.10;;;1.20;99.90;;;;;;4995385;28;20034;-88
2022/03/23 03:38:02;;;;;;;19.90;10.60;;;1.20;99.90;;;;;;4963008;28;20367;-88
2022/03/23 03:40:27;;;;;;;19.75;11.38;;;1.20;99.90;;;;;;4962804;28;20058;-88
2022/03/23 03:42:53;;;;;;;23.70;12.45;;;1.30;99.90;;;;;;4963578;28;20497;-87
2022/03/23 03:45:19;;;;;;;25.95;12.45;;;1.30;99.90;;;;;;4979429;28;20033;-88
2022/03/23 03:47:45;;;;;;;22.75;11.45;;;1.30;99.90;;;;;;4962783;28;20085;-87
2022/03/23 03:50:11;;;;;;;20.95;11.38;;;1.30;99.90;;;;;;4963080;28;20033;-87
2022/03/23 03:52:37;;;;;;;19.35;10.77;;;1.30;99.90;;;;;;4962802;28;20030;-88
2022/03/23 03:55:04;;;;;;;18.30;9.50;;;1.30;99.90;;;;;;4995158;28;20133;-88
2022/03/23 03:57:29;;;;;;;17.90;10.63;;;1.30;99.90;;;;;;4962879;28;20030;-88
2022/03/23 03:59:55;;;;;;;19.35;10.50;;;1.30;99.90;;;;;;4995477;28;20040;-88
2022/03/23 04:02:20;;;;;;;24.98;10.90;;;1.40;99.90;;;;;;4978279;28;20410;-88
2022/03/23 04:04:46;;;;;;;20.55;11.77;;;1.40;99.90;;;;;;4962506;28;20065;-88
2022/03/23 04:07:12;;;;;;;15.40;9.30;;;1.40;99.90;;;;;;4994686;28;20026;-87
2022/03/23 04:09:38;;;;;;;19.88;9.95;;;1.40;99.90;;;;;;4962689;28;20077;-88
2022/03/23 04:12:04;;;;;;;17.42;10.95;;;1.40;99.90;;;;;;4995160;28;20042;-88
2022/03/23 04:14:30;;;;;;;17.20;9.98;;;1.40;99.90;;;;;;4994715;28;20034;-87
2022/03/23 04:16:55;;;;;;;18.63;10.02;;;1.40;99.90;;;;;;4962005;28;20077;-88
2022/03/23 04:19:21;;;;;;;19.17;10.15;;;1.40;99.90;;;;;;4994471;28;20030;-87
2022/03/23 04:21:47;;;;;;;19.45;10.20;;;1.50;99.90;;;;;;4981239;28;20043;-88
2022/03/23 04:24:12;;;;;;;19.17;10.73;;;1.40;99.90;;;;;;4994651;28;20466;-88
2022/03/23 04:26:38;;;;;;;21.73;10.43;;;1.40;99.90;;;;;;4994198;28;20039;-87
2022/03/23 04:29:03;;;;;;;16.70;10.10;;;1.30;99.90;;;;;;4961927;28;20034;-87
2022/03/23 04:31:29;;;;;;;18.35;11.07;;;1.30;99.90;;;;;;4994643;28;20121;-88
2022/03/23 04:33:55;;;;;;;19.70;10.77;;;1.30;99.90;;;;;;4962246;28;20374;-87
2022/03/23 04:36:21;;;;;;;16.98;9.98;;;1.30;99.90;;;;;;4962588;28;20038;-87
2022/03/23 04:38:46;;;;;;;26.48;10.50;;;1.30;99.90;;;;;;4961964;28;20030;-87
2022/03/23 04:41:12;;;;;;;28.98;11.25;;;1.30;99.90;;;;;;4962058;28;20117;-87
2022/03/23 04:43:38;;;;;;;19.23;10.35;;;1.30;99.90;;;;;;4994544;28;20084;-87
2022/03/23 04:46:05;;;;;;;20.10;10.50;;;1.40;99.90;;;;;;4994309;28;20542;-87
2022/03/23 04:48:31;;;;;;;19.23;9.90;;;1.30;99.90;;;;;;4962010;28;20036;-87
2022/03/23 04:50:57;;;;;;;18.88;10.45;;;1.30;99.90;;;;;;4978388;28;20034;-87
2022/03/23 04:53:23;;;;;;;23.83;11.43;;;1.30;99.90;;;;;;4961758;28;20085;-88
2022/03/23 04:55:49;;;;;;;16.95;10.80;;;1.50;99.90;;;;;;4961676;28;20049;-87
2022/03/23 04:58:15;;;;;;;20.10;11.15;;;1.40;99.90;;;;;;4992878;28;20049;-87
2022/03/23 05:00:41;;;;;;;17.65;10.75;;;1.40;99.90;;;;;;4977127;28;20034;-87
2022/03/23 05:03:07;;;;;;;19.52;10.70;;;1.30;99.90;;;;;;4960933;28;20505;-87
2022/03/23 05:05:33;;;;;;;26.70;10.82;;;1.30;99.90;;;;;;4961445;28;20034;-88
2022/03/23 05:07:59;;;;;;;21.45;11.10;;;1.20;99.90;;;;;;4960358;28;20033;-87
2022/03/23 05:10:39;;;;;;;20.98;11.50;;;1.20;99.90;;;;;;4993147;28;20042;-87
2022/03/23 05:13:05;;;;;;;22.13;10.73;;;1.20;99.90;;;;;;4961215;28;20022;-88
2022/03/23 05:15:31;;;;;;;21.48;11.27;;;1.20;99.90;;;;;;4960395;28;20038;-87
2022/03/23 05:17:56;;;;;;;21.58;11.23;;;1.10;99.90;;;;;;4993676;28;20022;-87
2022/03/23 05:20:23;;;;;;;19.42;10.90;;;1.00;99.90;;;;;;4993850;28;20442;-87
2022/03/23 05:22:49;;;;;;;20.58;11.10;;;1.00;99.90;;;;;;4961692;28;20094;-87
2022/03/23 05:25:15;;;;;;;20.92;11.88;;;1.00;99.90;;;;;;4993219;28;20069;-83
2022/03/23 05:27:42;;;;;;;16.85;10.32;;;1.00;99.90;;;;;;4960233;28;20038;-84
2022/03/23 05:30:10;;;;;;;19.27;10.95;;;1.10;99.90;;;;;;4960257;28;20482;-84
2022/03/23 05:32:37;;;;;;;20.95;11.00;;;1.20;99.90;;;;;;4960538;28;20790;-83
2022/03/23 05:35:04;;;;;;;25.42;10.90;;;1.30;99.90;;;;;;4959887;28;20169;-84
2022/03/23 05:37:29;;;;;;;24.05;11.80;;;1.30;99.90;;;;;;4959719;28;20088;-84
2022/03/23 05:39:57;;;;;;;22.83;11.57;;;1.30;99.90;;;;;;4992415;28;20038;-84
2022/03/23 05:42:23;;;;;;;19.92;11.07;;;1.40;99.90;;;;;;4976628;28;20053;-84
2022/03/23 05:44:49;;;;;;;26.63;11.57;;;1.40;99.90;;;;;;4960162;28;20030;-84
2022/03/23 05:47:14;;;;;;;19.27;9.98;;;1.40;99.90;;;;;;4959828;28;20034;-84
2022/03/23 05:49:40;;;;;;;17.67;10.10;;;1.40;99.90;;;;;;4959932;28;20031;-84
2022/03/23 05:52:06;;;;;;;18.23;10.25;;;1.40;99.90;;;;;;4976271;28;20026;-84
2022/03/23 05:54:32;;;;;;;15.65;10.15;;;1.30;99.90;;;;;;4992436;28;20478;-84
2022/03/23 05:57:02;;;;;;;20.30;10.02;;;1.40;99.90;;;;;;4959648;28;20037;-84
2022/03/23 05:59:29;;;;;;;24.23;10.65;;;1.40;99.90;;;;;;4959984;28;20854;-84
2022/03/23 06:01:54;;;;;;;19.00;9.75;;;1.60;99.90;;;;;;4959547;28;20045;-84
2022/03/23 06:04:21;;;;;;;16.88;9.45;;;1.60;99.90;;;;;;4991941;28;20758;-84
2022/03/23 06:06:47;;;;;;;15.40;9.38;;;1.80;99.90;;;;;;4975803;28;20489;-84
2022/03/23 06:09:12;;;;;;;19.92;9.70;;;1.90;99.90;;;;;;4960042;28;20065;-85
2022/03/23 06:11:39;;;;;;;18.15;10.20;;;1.90;99.90;;;;;;4992191;28;20040;-85
2022/03/23 06:14:05;;;;;;;17.63;10.30;;;2.00;99.90;;;;;;4992730;28;20037;-85
2022/03/23 06:16:31;;;;;;;29.70;11.98;;;2.00;99.90;;;;;;4959825;28;20038;-84
2022/03/23 06:18:59;;;;;;;30.25;13.13;;;2.10;99.90;;;;;;4960149;28;20034;-85
2022/03/23 06:21:25;;;;;;;33.17;14.50;;;2.20;99.90;;;;;;4976051;28;20039;-85
2022/03/23 06:23:51;;;;;;;28.25;15.23;;;2.30;99.90;;;;;;4992083;28;20027;-85
2022/03/23 06:26:17;;;;;;;34.85;15.32;;;2.40;99.90;;;;;;4961708;28;20489;-85
2022/03/23 06:28:43;;;;;;;29.23;15.80;;;2.50;99.90;;;;;;4995676;28;20081;-84
2022/03/23 06:31:08;;;;;;;29.13;15.10;;;2.60;99.90;;;;;;4997192;28;20030;-85
2022/03/23 06:33:34;;;;;;;36.63;15.65;;;2.70;99.90;;;;;;4979699;28;20038;-85
2022/03/23 06:36:00;;;;;;;26.52;13.48;;;2.80;99.90;;;;;;4963463;28;20591;-85
2022/03/23 06:38:25;;;;;;;32.70;14.63;;;3.00;99.90;;;;;;4995341;28;20034;-84
2022/03/23 06:40:51;;;;;;;36.85;14.48;;;3.20;99.90;;;;;;4996522;28;20034;-84
2022/03/23 06:43:17;;;;;;;27.92;14.15;;;3.40;99.90;;;;;;4963486;28;20045;-85
2022/03/23 06:45:43;;;;;;;47.50;14.88;;;3.60;99.90;;;;;;4995757;28;20620;-85
2022/03/23 06:48:09;;;;;;;35.17;14.90;;;3.70;99.90;;;;;;4995694;28;20081;-85
2022/03/23 06:50:35;;;;;;;25.92;14.60;;;3.90;99.90;;;;;;4995833;28;20027;-85
2022/03/23 06:53:01;;;;;;;25.05;13.13;;;4.00;99.90;;;;;;4996611;28;20034;-85
2022/03/23 06:55:27;;;;;;;24.70;12.93;;;4.20;99.90;;;;;;4963283;28;20505;-85
2022/03/23 06:57:53;;;;;;;21.27;12.05;;;4.30;99.90;;;;;;4963277;28;20038;-85
2022/03/23 07:00:18;;;;;;;19.83;10.60;;;4.50;99.90;;;;;;4995927;28;20394;-85
2022/03/23 07:02:46;;;;;;;21.67;10.23;;;4.70;99.90;;;;;;4979425;28;20045;-85
2022/03/23 07:05:14;;;;;;;29.38;10.65;;;4.80;99.90;;;;;;4963456;28;20031;-85
2022/03/23 07:09:31;;;;;;;28.88;10.32;;;5.00;99.70;;;;;;4996581;28;20109;-85
2022/03/23 07:10:30;;;;;;;23.35;11.30;;;5.30;99.50;;;;;;4996796;28;20505;-85
2022/03/23 07:12:56;;;;;;;19.38;10.35;;;5.50;98.80;;;;;;4996832;28;20026;-85
2022/03/23 07:15:23;;;;;;;18.67;10.18;;;5.70;97.60;;;;;;4995548;28;20038;-85
2022/03/23 07:17:49;;;;;;;16.88;11.23;;;5.90;97.70;;;;;;4962562;28;20540;-85
2022/03/23 07:20:15;;;;;;;20.20;11.15;;;6.10;96.10;;;;;;4978977;28;20034;-85
2022/03/23 07:22:41;;;;;;;24.48;10.90;;;6.30;96.60;;;;;;4978824;28;20038;-85
2022/03/23 07:25:07;;;;;;;16.65;10.45;;;6.50;97.50;;;;;;4995220;28;20153;-85
2022/03/23 07:27:33;;;;;;;20.27;11.70;;;6.70;97.70;;;;;;4962658;28;20069;-85
2022/03/23 07:30:05;;;;;;;33.47;14.80;;;6.80;98.50;;;;;;4995807;28;20055;-85
2022/03/23 07:32:31;;;;;;;54.38;26.70;;;7.00;97.60;;;;;;4996180;28;20035;-85
2022/03/23 07:35:07;;;;;;;36.60;19.73;;;7.20;94.90;;;;;;4962892;28;20101;-85
2022/03/23 07:37:33;;;;;;;23.67;12.63;;;7.50;91.20;;;;;;4961661;28;20056;-85
2022/03/23 07:39:59;;;;;;;23.58;12.52;;;7.70;86.90;;;;;;4978955;28;20378;-85
2022/03/23 07:42:25;;;;;;;19.85;12.05;;;7.90;86.00;;;;;;4996170;28;20041;-85
2022/03/23 07:44:52;;;;;;;20.83;12.10;;;8.00;83.40;;;;;;4978496;28;20033;-85
2022/03/23 07:47:18;;;;;;;23.92;12.43;;;8.20;82.00;;;;;;4978552;28;20026;-85
2022/03/23 07:49:44;;;;;;;19.85;12.02;;;8.40;80.50;;;;;;4996137;28;20137;-85
2022/03/23 07:52:09;;;;;;;26.80;14.30;;;8.60;82.00;;;;;;4994778;28;20035;-85
2022/03/23 07:54:36;;;;;;;28.60;12.95;;;8.70;79.00;;;;;;4962323;28;20038;-85
2022/03/23 07:57:02;;;;;;;21.65;12.50;;;8.90;80.10;;;;;;4978439;28;20045;-86
2022/03/23 07:59:28;;;;;;;28.88;13.02;;;9.20;78.40;;;;;;4962740;28;20069;-85
2022/03/23 08:01:54;;;;;;;20.73;13.00;;;9.30;78.40;;;;;;4978508;28;20037;-85
2022/03/23 08:04:19;;;;;;;21.92;11.93;;;9.60;86.10;;;;;;4962433;28;20037;-85
2022/03/23 08:06:45;;;;;;;27.35;12.80;;;10.00;85.70;;;;;;4994123;28;20069;-85
2022/03/23 08:09:11;;;;;;;26.98;12.45;;;10.10;82.60;;;;;;4961397;28;20394;-85
2022/03/23 08:11:37;;;;;;;25.98;12.23;;;10.60;81.40;;;;;;4961859;28;20038;-85
2022/03/23 08:14:03;;;;;;;22.33;11.82;;;10.80;77.80;;;;;;4962204;28;20125;-85
2022/03/23 08:16:29;;;;;;;17.55;11.43;;;11.00;76.20;;;;;;4978226;28;20074;-85
2022/03/23 08:18:55;;;;;;;20.42;11.75;;;11.10;76.20;;;;;;4977820;28;20038;-85
2022/03/23 08:21:23;;;;;;;16.27;10.82;;;11.10;75.00;;;;;;4961698;28;20113;-85
2022/03/23 08:24:13;;;;;;;23.38;11.20;;;11.20;76.40;;;;;;4961497;28;20130;-84
2022/03/23 08:26:39;;;;;;;15.88;10.82;;;11.30;76.50;;;;;;4977513;28;20088;-85
2022/03/23 08:29:04;;;;;;;20.73;11.60;;;11.40;76.50;;;;;;4977540;28;20109;-85
2022/03/23 08:31:30;;;;;;;26.23;11.95;;;11.40;75.20;;;;;;4961142;28;20034;-85
2022/03/23 08:33:56;;;;;;;17.13;11.13;;;11.40;77.10;;;;;;4993666;28;20478;-84
2022/03/23 08:36:22;;;;;;;17.90;11.05;;;11.40;78.90;;;;;;4993793;28;20030;-85
2022/03/23 08:38:47;;;;;;;18.88;11.60;;;11.60;78.20;;;;;;4993853;28;20085;-85
2022/03/23 08:41:14;;;;;;;19.02;11.68;;;11.60;75.00;;;;;;4993795;28;20100;-85
2022/03/23 08:43:41;;;;;;;18.58;12.18;;;11.60;72.70;;;;;;4961041;28;20474;-85
2022/03/23 08:46:08;;;;;;;19.58;11.57;;;11.70;77.70;;;;;;4993389;28;20030;-85
2022/03/23 08:48:34;;;;;;;19.70;11.65;;;12.00;75.80;;;;;;4993190;28;20085;-85
2022/03/23 08:51:00;;;;;;;20.58;11.77;;;13.40;75.10;;;;;;4961489;28;20414;-85
2022/03/23 08:53:26;;;;;;;18.33;11.70;;;15.40;67.80;;;;;;4993420;28;20026;-82
2022/03/23 08:55:53;;;;;;;13.70;10.50;;;17.00;63.40;;;;;;4993175;28;20053;-83
2022/03/23 08:58:18;;;;;;;17.67;10.50;;;17.60;59.20;;;;;;4961058;28;20072;-83
2022/03/23 09:01:00;;;;;;;16.63;10.95;;;17.70;57.50;;;;;;4977190;28;20109;-83
2022/03/23 09:03:26;;;;;;;21.58;11.75;;;17.20;56.60;;;;;;4977133;28;20478;-83
2022/03/23 09:05:52;;;;;;;15.45;10.63;;;17.40;58.00;;;;;;4994637;28;20061;-83
2022/03/23 09:08:18;;;;;;;15.00;10.57;;;18.30;56.20;;;;;;4992893;28;20661;-83
2022/03/23 09:10:44;;;;;;;17.60;11.38;;;18.10;55.20;;;;;;4993309;28;20030;-83
2022/03/23 09:13:09;;;;;;;15.32;11.45;;;17.60;55.50;;;;;;4994553;28;20027;-83
2022/03/23 09:15:35;;;;;;;15.65;11.07;;;17.70;52.90;;;;;;4960857;28;20486;-83
2022/03/23 09:18:02;;;;;;;19.08;11.95;;;17.30;56.20;;;;;;4960599;28;20127;-83
2022/03/23 09:20:29;;;;;;;16.38;11.20;;;17.50;57.90;;;;;;4960198;28;20023;-84
2022/03/23 09:22:56;;;;;;;17.60;11.32;;;17.60;54.80;;;;;;4992723;28;20039;-84
2022/03/23 09:25:22;;;;;;;16.70;12.07;;;16.60;55.60;;;;;;4992393;28;20037;-84
2022/03/23 09:27:50;;;;;;;21.10;11.73;;;16.10;56.90;;;;;;4976185;28;20062;-84
2022/03/23 09:30:16;;;;;;;19.70;11.90;;;16.20;57.40;;;;;;4975779;28;20222;-83
2022/03/23 09:32:43;;;;;;;19.40;13.05;;;15.90;57.50;;;;;;4992241;28;20138;-83
2022/03/23 09:35:09;;;;;;;18.27;12.63;;;16.10;59.00;;;;;;4976630;28;20040;-84
2022/03/23 09:37:47;;;;;;;18.92;11.95;;;15.90;56.50;;;;;;4960049;28;20417;-84
2022/03/23 09:40:16;;;;;;;19.15;11.50;;;16.00;58.60;;;;;;4976155;28;20038;-84
2022/03/23 09:42:43;;;;;;;23.05;11.60;;;16.40;57.10;;;;;;4992429;28;20486;-84
2022/03/23 09:48:01;;;;;;;19.20;13.13;;;16.60;57.10;;;;;;4993783;28;20164;-84
2022/03/23 09:50:29;;;;;;;17.73;12.05;;;16.70;56.50;;;;;;4960078;28;20022;-84
2022/03/23 09:52:56;;;;;;;16.95;11.82;;;17.20;56.60;;;;;;4975974;28;20045;-85
2022/03/23 09:55:21;;;;;;;17.20;12.82;;;17.80;55.70;;;;;;4975669;28;20049;-84
2022/03/23 09:57:47;;;;;;;15.73;12.07;;;18.30;54.60;;;;;;4991397;28;20466;-83
2022/03/23 10:00:13;;;;;;;18.50;12.38;;;18.50;52.60;;;;;;4958486;28;20045;-84
2022/03/23 10:02:39;;;;;;;20.67;12.00;;;19.00;53.10;;;;;;4975721;28;20034;-84
2022/03/23 10:05:24;;;;;;;19.23;13.18;;;19.10;51.10;;;;;;4975784;28;20825;-84
2022/03/23 10:08:11;;;;;;;18.75;12.98;;;18.20;50.90;;;;;;4959590;28;20478;-83
2022/03/23 10:11:15;;;;;;;20.90;13.55;;;17.30;52.10;;;;;;4959669;28;20030;-83
2022/03/23 10:14:34;;;;;;;18.48;13.18;;;16.80;53.30;;;;;;4959623;28;20034;-84
2022/03/23 10:17:24;;;;;;;17.17;13.07;;;17.00;54.00;;;;;;4974906;28;20034;-84
2022/03/23 10:19:50;;;;;;;22.10;12.98;;;17.10;53.30;;;;;;4992881;28;20088;-83
2022/03/23 10:23:09;;;;;;;22.90;13.50;;;17.10;53.00;;;;;;4959323;28;20026;-84
2022/03/23 10:25:37;;;;;;;22.40;12.77;;;17.90;52.90;;;;;;4975274;28;20026;-84
2022/03/23 10:28:14;;;;;;;21.63;12.70;;;18.30;51.10;;;;;;4959104;28;20768;-84
2022/03/23 10:30:42;;;;;;;18.17;12.68;;;18.20;51.00;;;;;;4959201;28;20467;-84
2022/03/23 10:33:24;;;;;;;22.33;13.80;;;18.40;50.20;;;;;;4959359;28;20046;-84
2022/03/23 10:35:50;;;;;;;;;;;18.50;50.40;;;;;;4976205;28;20045;-84
2022/03/23 10:38:23;;;;;;;18.75;12.27;;;19.50;50.00;;;;;;4975170;28;19914;-84
2022/03/23 10:40:51;;;;;;;22.67;13.10;;;19.90;48.70;;;;;;4958807;28;20133;-85
2022/03/23 10:43:21;;;;;;;19.45;12.20;;;20.10;47.60;;;;;;4992863;28;20030;-84
2022/03/23 10:45:47;;;;;;;18.10;12.45;;;20.20;48.20;;;;;;4991855;28;20509;-84
2022/03/23 10:48:16;;;;;;;16.50;11.77;;;20.20;48.00;;;;;;4991482;28;20027;-84
2022/03/23 10:50:57;;;;;;;17.83;13.13;;;20.40;47.10;;;;;;4959616;28;20457;-84
2022/03/23 10:53:41;;;;;;;16.70;12.20;;;20.40;46.20;;;;;;4959821;28;20133;-84
2022/03/23 10:56:08;;;;;;;21.75;14.20;;;20.10;46.40;;;;;;4959400;28;20474;-84
2022/03/23 10:58:35;;;;;;;18.95;12.73;;;19.90;46.80;;;;;;4959147;28;20039;-84
2022/03/23 11:01:05;;;;;;;24.42;13.90;;;19.40;47.70;;;;;;4959310;28;20035;-84
2022/03/23 11:03:38;;;;;;;19.15;13.63;;;19.00;48.40;;;;;;4975729;28;20030;-84
2022/03/23 11:06:06;;;;;;;26.70;13.30;;;19.10;49.00;;;;;;4959430;28;20027;-84
2022/03/23 11:08:32;;;;;;;22.52;13.75;;;19.40;48.50;;;;;;4959430;28;20057;-84
2022/03/23 11:16:50;;;;;;;16.63;12.85;;;18.60;49.00;;;;;;4979167;28;20922;-84
2022/03/23 11:19:23;;;;;;;22.05;14.30;;;18.50;48.50;;;;;;4962208;28;20192;-84
2022/03/23 11:22:16;;;;;;;31.58;15.18;;;18.10;49.90;;;;;;4962310;28;20030;-84
2022/03/23 11:24:44;;;;;;;23.73;15.30;;;18.00;48.90;;;;;;4962648;28;20026;-84
2022/03/23 11:27:12;;;;;;;29.73;15.18;;;18.00;50.00;;;;;;4962490;28;20493;-84
2022/03/23 11:29:39;;;;;;;19.80;13.65;;;18.70;49.80;;;;;;4962016;28;20037;-84
2022/03/23 11:32:14;;;;;;;20.63;13.43;;;19.50;48.40;;;;;;4978993;28;20034;-84
2022/03/23 11:34:45;;;;;;;19.90;13.68;;;20.00;47.30;;;;;;4994518;28;20030;-83
2022/03/23 11:37:12;;;;;;;19.38;13.80;;;20.30;46.20;;;;;;4978066;28;20030;-83
2022/03/23 11:39:41;;;;;;;23.50;15.68;;;20.40;45.40;;;;;;4978137;28;20070;-83
2022/03/23 11:42:07;;;;;;;21.92;14.75;;;21.00;44.70;;;;;;4978226;28;20034;-83
2022/03/23 11:44:49;;;;;;;18.63;12.68;;;20.90;45.30;;;;;;4961690;28;20030;-83
2022/03/23 11:47:30;;;;;;;21.13;13.88;;;21.50;43.60;;;;;;4977936;28;20120;-83
2022/03/23 11:50:12;;;;;;;18.38;13.60;;;21.40;44.50;;;;;;4962353;28;20728;-83
2022/03/23 11:52:45;;;;;;;18.10;13.90;;;21.50;43.00;;;;;;4962315;28;20030;-83
2022/03/23 11:55:42;;;;;;;22.23;13.45;;;22.00;43.90;;;;;;4961788;28;20397;-83
2022/03/23 11:58:23;;;;;;;21.58;13.82;;;21.90;42.20;;;;;;4977403;28;20030;-83
2022/03/23 12:00:54;;;;;;;19.95;14.10;;;21.10;42.90;;;;;;4977984;28;20037;-83
2022/03/23 12:03:40;;;;;;;20.65;14.13;;;21.30;42.20;;;;;;4977797;28;20066;-83
2022/03/23 12:06:09;;;;;;;21.75;14.07;;;21.60;44.30;;;;;;4967882;28;20034;-83
2022/03/23 12:08:55;;;;;;;23.90;14.50;;;21.80;43.30;;;;;;4995251;28;20038;-83
2022/03/23 12:11:30;;;;;;;25.63;14.93;;;21.30;42.50;;;;;;4961989;28;20049;-83
2022/03/23 12:13:57;;;;;;;22.67;13.82;;;21.10;42.70;;;;;;4961579;28;20026;-83
2022/03/23 12:16:45;;;;;;;22.63;13.50;;;21.20;41.80;;;;;;4993941;28;20074;-84
2022/03/23 12:19:11;;;;;;;21.83;13.18;;;21.70;42.60;;;;;;4976999;28;20034;-84
2022/03/23 12:21:55;;;;;;;19.85;13.55;;;21.70;42.10;;;;;;4961210;28;20430;-84
2022/03/23 12:24:55;;;;;;;21.17;13.55;;;20.90;41.80;;;;;;4977724;28;20035;-83
2022/03/23 12:27:41;;;;;;;21.05;13.95;;;20.40;42.20;;;;;;4994825;28;20018;-84
2022/03/23 12:30:22;;;;;;;17.27;12.95;;;19.50;42.40;;;;;;4979791;28;20084;-84
2022/03/23 12:32:48;;;;;;;18.38;13.18;;;19.80;43.90;;;;;;4962027;28;20031;-84
2022/03/23 12:35:14;;;;;;;23.40;14.20;;;20.80;43.90;;;;;;4961659;28;20026;-84
2022/03/23 12:37:42;;;;;;;22.00;13.27;;;21.00;42.40;;;;;;4994047;28;20027;-84
2022/03/23 12:40:13;;;;;;;20.33;13.60;;;20.70;42.40;;;;;;4977824;28;20116;-84
2022/03/23 12:42:46;;;;;;;18.65;13.77;;;20.50;43.30;;;;;;4977165;28;20050;-84
2022/03/23 12:45:28;;;;;;;23.17;13.35;;;20.10;43.40;;;;;;4976969;28;20030;-84
2022/03/23 12:47:56;;;;;;;21.05;12.82;;;19.60;43.40;;;;;;4976702;28;20027;-84
2022/03/23 12:58:45;;;;;;;20.08;12.90;;;19.80;43.40;;;;;;4976683;28;20031;-84
2022/03/23 13:01:16;;;;;;;21.98;13.55;;;19.60;43.90;;;;;;4993186;28;20081;-84
2022/03/23 13:03:44;;;;;;;27.20;13.80;;;19.30;43.60;;;;;;4960812;28;20565;-84
2022/03/23 13:06:18;;;;;;;25.75;13.82;;;19.10;43.40;;;;;;4960761;28;20273;-84
2022/03/23 13:08:50;;;;;;;21.58;14.13;;;18.90;44.30;;;;;;4976679;28;20022;-84
2022/03/23 13:11:24;;;;;;;20.90;14.05;;;18.90;44.40;;;;;;4960697;28;20165;-85